• Join FlightAware (Why Join?)
  • Login
  • US Flag 
06:35PM EST


 

Airport Tracker/Info


-or-


 

Live Flight TrackerFlight Track Log ✈ GJS3649 ✈ 14-Feb-2014 ✈ KBWI - KORD

Flight Track Log - Related Links

Times and Time Zones

All times are in EST time to prevent confusion due to time zone crossing. See the GJS3649 flight status page for this flight to view local times or setup timezone preferences in your user account.

Time Position Orientation Groundspeed Altitude Reporting Facility
EST Latitude Longitude Course Direction KTS MPH feet Rate Location/Type
11:37AM 39.1667 -76.7000 211° Southwest 154 177 1,000  Level Potomac TRACON
11:38AM 39.1833 -76.7667 288° West 182 209 3,500 2,520 Climbing Potomac TRACON
11:39AM 39.1833 -76.8333 270° West 218 251 5,800 2,760 Climbing Potomac TRACON
11:40AM 39.2000 -77.1431 270° West  Level FlightAware Approximate
11:40AM 39.2000 -76.9000 288° West 211 243 8,800  Level Potomac TRACON
11:41AM 39.1241 -77.2128 211° Southwest  Level FlightAware Approximate
11:41AM 39.2000 -76.9667 270° West 229 264 11,100  Level Potomac TRACON
11:42AM 39.0423 -77.2764 211° Southwest  Level FlightAware Approximate
11:42AM 39.2000 -77.0500 270° West 249 287 12,900  Level Potomac TRACON
11:44AM 39.1483 -77.2136 248° West 275 316 15,700 1,560 Climbing Washington Center
11:45AM 39.0725 -77.2814 215° Southwest 308 354 17,700 2,040 Climbing Washington Center
11:46AM 39.0481 -77.3878 254° West 301 346 19,900 1,920 Climbing Washington Center
11:47AM 39.0358 -77.5050 262° West 307 353 21,600 1,800 Climbing Washington Center
11:48AM 39.0233 -77.6303 263° West 333 383 23,500 1,680 Climbing Washington Center
11:49AM 39.0131 -77.7367 263° West 333 383 25,000 1,440 Climbing Washington Center
11:50AM 38.9983 -77.8619 261° West 333 383 26,400 1,200 Climbing Washington Center
11:51AM 38.9856 -77.9844 262° West 338 389 27,400 960 Climbing Washington Center
11:52AM 38.9725 -78.1067 262° West 343 395 28,400 960 Climbing Washington Center
11:53AM 38.9614 -78.2344 264° West 356 410 29,400 960 Climbing Washington Center
11:54AM 38.9711 -78.3603 276° West 356 410 30,400 1,020 Climbing Washington Center
11:55AM 38.9786 -78.4861 274° West 361 415 31,500 960 Climbing Washington Center
11:56AM 38.9881 -78.6122 276° West 361 415 32,400 840 Climbing Washington Center
11:57AM 38.9953 -78.7406 274° West 366 421 33,200 720 Climbing Washington Center
11:58AM 39.0042 -78.8719 275° West 366 421 33,900 540 Climbing Washington Center
11:59AM 39.0114 -78.9869 275° West 366 421 34,400 540 Climbing Washington Center
12:00PM 39.0222 -79.1186 276° West 371 427 35,000 240 Climbing Washington Center
12:01PM 39.0306 -79.2578 274° West 377 434 35,000 60 Level Washington Center
12:02PM 39.0386 -79.3972 274° West 388 447 35,200 480 Climbing Washington Center
12:03PM 39.0525 -79.5531 277° West 401 461 36,000 720 Climbing Washington Center
12:04PM 39.0600 -79.6978 274° West 401 461 36,700 660 Climbing Washington Center
12:05PM 39.0678 -79.8372 274° West 401 461 37,300 540 Climbing Washington Center
12:06PM 39.0753 -79.9767 274° West 406 467 37,800 240 Climbing Washington Center
12:07PM 39.0811 -80.1631 272° West 394 453 38,000 60 Climbing Indianapolis Center
12:08PM 39.0897 -80.3044 275° West 396 456 38,000  Level Indianapolis Center
12:09PM 39.0986 -80.4706 274° West 392 451 38,000  Level Indianapolis Center
12:10PM 39.1183 -80.6044 281° West 393 452 38,000  Level Indianapolis Center
12:11PM 39.1697 -80.7272 298° West 391 450 38,000  Level Indianapolis Center
12:12PM 39.2239 -80.8503 300° West 396 456 38,000  Level Indianapolis Center
12:13PM 39.2767 -80.9714 299° West 392 451 38,000  Level Indianapolis Center
12:14PM 39.3289 -81.0939 299° West 391 450 38,000  Level Indianapolis Center
12:16PM 39.4364 -81.3439 300° West 400 460 38,000  Level Indianapolis Center
12:17PM 39.5006 -81.4961 299° West 404 465 38,000  Level Indianapolis Center
12:18PM 39.5550 -81.6236 299° West 405 466 38,000  Level Indianapolis Center
12:20PM 39.6089 -81.7503 299° West 403 464 38,000  Level Indianapolis Center
12:21PM 39.6619 -81.8781 298° West 404 465 38,000  Level Indianapolis Center
12:22PM 39.7139 -82.0019 299° West 401 461 38,000  Level Indianapolis Center
12:23PM 39.7667 -82.1264 299° West 398 458 38,000  Level Indianapolis Center
12:24PM 39.8181 -82.2503 298° West 393 452 38,000  Level Indianapolis Center
12:25PM 39.8792 -82.3986 298° West 390 449 38,000  Level Indianapolis Center
12:26PM 39.9294 -82.5217 298° West 388 447 38,000  Level Indianapolis Center
12:27PM 39.9800 -82.6442 298° West 386 444 38,000  Level Indianapolis Center
12:28PM 40.0294 -82.7669 298° West 386 444 38,000  Level Indianapolis Center
12:29PM 40.0800 -82.8925 298° West 390 449 38,000  Level Indianapolis Center
12:30PM 40.1319 -83.0181 298° West 394 453 38,000  Level Indianapolis Center
12:31PM 40.1831 -83.1456 298° West 398 458 38,000  Level Indianapolis Center
12:32PM 40.2453 -83.2994 298° West 401 461 38,000  Level Indianapolis Center
12:33PM 40.2969 -83.4292 298° West 404 465 38,000  Level Indianapolis Center
12:34PM 40.3483 -83.5586 298° West 405 466 38,000  Level Indianapolis Center
12:35PM 40.3986 -83.6856 298° West 399 459 38,000  Level Indianapolis Center
12:36PM 40.4506 -83.8144 298° West 400 460 38,000  Level Indianapolis Center
12:37PM 40.5008 -83.9453 297° West 402 463 38,000  Level Indianapolis Center
12:38PM 40.5625 -84.1019 297° West 404 465 38,000 -60 Level Indianapolis Center
12:39PM 40.6139 -84.2347 297° West 407 468 37,900 -1,320 Descending Indianapolis Center
12:40PM 40.6658 -84.3667 297° West 407 468 35,400 -1,860 Descending Indianapolis Center
12:41PM 40.7144 -84.4933 297° West 397 457 34,200 -720 Descending Indianapolis Center
12:42PM 40.7608 -84.6119 297° West 374 430 34,000 -180 Descending Indianapolis Center
12:43PM 40.7917 -84.6967 296° West 368 423 34,000 -840 Level Chicago Center
12:44PM 40.8392 -84.8208 297° West 374 430 32,600 -1,680 Descending Chicago Center
12:45PM 40.8883 -84.9483 297° West 381 438 30,600 -1,500 Descending Chicago Center
12:46PM 40.9356 -85.0789 296° West 388 447 29,600 -1,020 Descending Chicago Center
12:47PM 40.9803 -85.1992 296° West 374 430 28,600 -960 Descending Chicago Center
12:48PM 41.0264 -85.3253 296° West 376 433 27,700 -900 Descending Chicago Center
12:49PM 41.0822 -85.4800 296° West 385 443 26,800 -780 Descending Chicago Center
12:50PM 41.1297 -85.6100 296° West 389 448 26,200 -600 Descending Chicago Center
12:51PM 41.1764 -85.7403 295° West 389 448 25,600 -600 Descending Chicago Center
12:52PM 41.2231 -85.8689 296° West 387 445 25,000 -480 Descending Chicago Center
12:53PM 41.2692 -85.9983 295° West 386 444 24,700 -1,020 Descending Chicago Center
12:54PM 41.2936 -86.1317 284° West 368 423 23,000 -1,680 Descending Chicago Center
12:55PM 41.3092 -86.2717 278° West 378 435 21,300 -1,680 Descending Chicago Center
12:56PM 41.3258 -86.4106 279° West 381 438 19,600 -2,100 Descending Chicago Center
12:57PM 41.4067 -86.5414 310° West 393 452 17,000 -2,220 Descending Chicago Center
12:58PM 41.4914 -86.6275 323° Northwest 385 443 15,100 -1,800 Descending Chicago Center
12:59PM 41.5703 -86.7075 323° Northwest 363 418 13,400 -1,500 Descending Chicago Center
01:00PM 41.6578 -86.7897 325° Northwest 349 402 12,000 -720 Descending Chicago Center
01:01PM 41.7500 -86.8064 352° North 339 390 12,000  Level Chicago Center
01:02PM 41.8444 -86.8253 352° North 342 394 12,000  Level Chicago Center
01:03PM 41.9208 -86.8950 326° Northwest 340 391 12,000 -540 Level Chicago Center
01:04PM 41.9586 -86.9939 297° West 302 348 10,900 -1,440 Descending Chicago Center
01:05PM 41.9806 -87.1028 285° West 258 297 9,100 -960 Descending Chicago Center
01:06PM 41.9814 -87.1972 271° West 253 291 9,000 -60 Descending Chicago Center
01:07PM 41.9831 -87.2944 271° West 259 298 9,000 -300 Level Chicago Center
01:08PM 41.9828 -87.3908 270° West 261 300 8,400 -960 Descending Chicago Center
01:10PM 41.9819 -87.4794 269° West 243 280 7,100 -1,200 Descending Chicago Center
01:11PM 41.9806 -87.5575 269° West 218 251 6,000 -1,260 Descending Chicago Center
01:12PM 41.9847 -87.6492 274° West 209 241 4,600 -1,260 Descending Chicago Center
01:13PM 41.9856 -87.7153 271° West 198 228 3,500 -1,020 Descending Chicago Center
01:14PM 41.9842 -87.7753 268° West 181 208 2,500 -900 Descending Chicago Center
01:15PM 41.9839 -87.8286 270° West 164 189 1,700 -540 Descending Chicago Center
01:16PM 41.9844 -87.8858 271° West 155 178 1,400 -300 Descending Chicago Center
01:18PM 41.9667 -87.9000 270° West  Level FlightAware Approximate